createdAt,value
2022-09-22T00:01:41.479Z,5.15
2022-09-22T00:04:13.176Z,5.20
2022-09-22T00:06:43.678Z,5.00
2022-09-22T00:09:12.909Z,5.68
2022-09-22T00:11:45.708Z,5.55
2022-09-22T00:14:18.922Z,5.50
2022-09-22T00:16:49.676Z,6.03
2022-09-22T00:19:19.716Z,5.97
2022-09-22T00:21:47.390Z,5.57
2022-09-22T00:24:17.965Z,6.07
2022-09-22T00:26:45.604Z,7.05
2022-09-22T00:29:13.617Z,7.65
2022-09-22T00:31:42.083Z,7.18
2022-09-22T00:34:15.979Z,7.95
2022-09-22T00:36:45.455Z,7.90
2022-09-22T00:39:13.581Z,7.70
2022-09-22T00:41:44.893Z,8.32
2022-09-22T00:44:26.964Z,7.50
2022-09-22T00:47:15.371Z,7.40
2022-09-22T00:49:53.404Z,7.30
2022-09-22T00:52:25.670Z,7.50
2022-09-22T00:55:00.911Z,6.90
2022-09-22T00:57:33.913Z,6.38
2022-09-22T01:00:04.594Z,6.35
2022-09-22T01:02:32.115Z,6.45
2022-09-22T01:04:59.365Z,5.63
2022-09-22T01:07:29.346Z,5.32
2022-09-22T01:09:57.697Z,4.85
2022-09-22T01:12:26.595Z,5.35
2022-09-22T01:15:16.170Z,5.28
2022-09-22T01:17:55.431Z,5.07
2022-09-22T01:20:41.339Z,4.55
2022-09-22T01:26:16.463Z,4.43
2022-09-22T01:29:33.938Z,4.53
2022-09-22T01:32:10.639Z,4.80
2022-09-22T01:34:57.183Z,4.38
2022-09-22T01:37:49.997Z,4.30
2022-09-22T01:40:30.311Z,4.75
2022-09-22T01:43:32.264Z,4.65
2022-09-22T01:46:06.657Z,4.22
2022-09-22T01:48:36.968Z,4.30
2022-09-22T01:51:14.940Z,4.45
2022-09-22T01:53:47.705Z,4.30
2022-09-22T01:56:16.285Z,4.25
2022-09-22T01:58:47.513Z,3.72
2022-09-22T02:01:19.240Z,4.15
2022-09-22T02:04:14.893Z,4.07
2022-09-22T02:07:25.898Z,3.72
2022-09-22T02:09:56.808Z,3.70
2022-09-22T02:12:23.935Z,4.07
2022-09-22T02:14:50.888Z,3.70
2022-09-22T02:17:19.041Z,3.65
2022-09-22T02:19:46.231Z,3.75
2022-09-22T02:22:13.576Z,3.92
2022-09-22T02:24:43.728Z,4.22
2022-09-22T02:27:25.711Z,4.47
2022-09-22T02:30:02.028Z,4.00
2022-09-22T02:32:34.591Z,4.60
2022-09-22T02:35:05.334Z,4.63
2022-09-22T02:37:56.024Z,5.20
2022-09-22T02:40:37.143Z,5.13
2022-09-22T02:43:17.589Z,5.75
2022-09-22T02:46:05.671Z,5.40
2022-09-22T02:48:38.970Z,6.57
2022-09-22T02:51:09.964Z,6.22
2022-09-22T02:53:37.530Z,5.93
2022-09-22T02:56:12.970Z,6.15
2022-09-22T03:01:07.020Z,5.68
2022-09-22T03:03:34.123Z,5.68
2022-09-22T03:06:00.939Z,5.57
2022-09-22T03:08:27.946Z,5.78
2022-09-22T03:10:54.865Z,5.45
2022-09-22T03:13:21.873Z,5.68
2022-09-22T03:15:49.958Z,5.13
2022-09-22T03:18:17.266Z,5.47
2022-09-22T03:20:44.534Z,5.80
2022-09-22T03:23:11.701Z,6.20
2022-09-22T03:25:38.891Z,5.95
2022-09-22T03:28:05.996Z,5.32
2022-09-22T03:30:34.042Z,5.93
2022-09-22T03:33:03.868Z,5.88
2022-09-22T03:35:31.124Z,5.88
2022-09-22T03:38:02.791Z,5.32
2022-09-22T03:40:30.149Z,5.85
2022-09-22T03:42:57.239Z,6.18
2022-09-22T03:45:28.281Z,6.13
2022-09-22T03:47:55.438Z,6.95
2022-09-22T03:50:22.590Z,6.57
2022-09-22T03:52:49.746Z,6.57
2022-09-22T03:55:16.782Z,7.28
2022-09-22T03:57:44.008Z,7.45
2022-09-22T04:00:11.703Z,7.65
2022-09-22T04:02:44.063Z,8.73
2022-09-22T04:05:19.734Z,7.63
2022-09-22T04:07:47.593Z,8.00
2022-09-22T04:10:16.733Z,9.00
2022-09-22T04:12:43.786Z,12.45
2022-09-22T04:15:18.363Z,9.82
2022-09-22T04:17:51.294Z,10.52
2022-09-22T04:20:18.663Z,10.38
2022-09-22T04:22:46.200Z,10.27
2022-09-22T04:25:15.818Z,10.18
2022-09-22T04:27:42.960Z,10.98
2022-09-22T04:30:11.033Z,10.68
2022-09-22T04:32:40.646Z,10.70
2022-09-22T04:35:14.878Z,10.73
2022-09-22T04:37:44.495Z,10.57
2022-09-22T04:40:12.651Z,10.32
2022-09-22T04:42:40.222Z,10.10
2022-09-22T04:45:08.082Z,10.10
2022-09-22T04:47:35.933Z,9.18
2022-09-22T04:50:04.816Z,9.23
2022-09-22T04:52:32.034Z,9.95
2022-09-22T04:54:59.440Z,9.98
2022-09-22T04:57:29.553Z,9.93
2022-09-22T04:59:57.008Z,9.18
2022-09-22T05:02:27.435Z,9.77
2022-09-22T05:04:55.918Z,10.52
2022-09-22T05:07:23.193Z,9.55
2022-09-22T05:09:50.358Z,9.50
2022-09-22T05:12:20.556Z,10.15
2022-09-22T05:14:48.915Z,9.15
2022-09-22T05:17:25.407Z,9.77
2022-09-22T05:19:56.224Z,8.40
2022-09-22T05:22:26.523Z,8.68
2022-09-22T05:25:01.298Z,9.18
2022-09-22T05:27:37.875Z,9.82
2022-09-22T05:30:06.465Z,9.05
2022-09-22T05:32:37.819Z,9.82
2022-09-22T05:35:08.188Z,9.35
2022-09-22T05:37:39.130Z,9.52
2022-09-22T05:40:09.293Z,8.77
2022-09-22T05:42:51.570Z,9.38
2022-09-22T05:45:19.805Z,8.85
2022-09-22T05:47:47.552Z,8.82
2022-09-22T05:50:16.873Z,8.85
2022-09-22T05:52:44.044Z,9.40
2022-09-22T05:55:18.177Z,9.30
2022-09-22T05:57:47.491Z,9.52
2022-09-22T06:00:17.186Z,9.25
2022-09-22T06:02:48.289Z,9.27
2022-09-22T06:05:21.221Z,9.43
2022-09-22T06:08:00.870Z,9.30
2022-09-22T06:10:31.130Z,9.23
2022-09-22T06:13:01.431Z,9.32
2022-09-22T06:15:28.820Z,9.10
2022-09-22T06:17:57.544Z,9.13
2022-09-22T06:20:24.496Z,8.75
2022-09-22T06:22:51.362Z,8.82
2022-09-22T06:25:18.655Z,8.30
2022-09-22T06:27:45.811Z,8.70
2022-09-22T06:30:13.840Z,8.18
2022-09-22T06:32:50.336Z,8.40
2022-09-22T06:35:18.555Z,6.82
2022-09-22T06:37:45.391Z,7.68
2022-09-22T06:40:17.655Z,6.85
2022-09-22T06:42:50.284Z,6.63
2022-09-22T06:45:34.039Z,6.88
2022-09-22T06:48:03.453Z,7.10
2022-09-22T06:50:33.626Z,7.97
2022-09-22T06:53:09.310Z,7.75
2022-09-22T06:55:51.663Z,7.63
2022-09-22T06:59:51.680Z,8.95
2022-09-22T07:05:31.850Z,7.78
2022-09-22T07:11:25.997Z,7.78
2022-09-22T07:14:12.856Z,6.55
2022-09-22T07:16:54.759Z,6.95
2022-09-22T07:19:24.989Z,6.43
2022-09-22T07:22:03.526Z,6.45
2022-09-22T07:36:49.347Z,4.80
2022-09-22T07:40:05.945Z,6.07
2022-09-22T07:42:38.960Z,4.63
2022-09-22T07:45:20.032Z,4.45
2022-09-22T07:48:18.736Z,4.72
2022-09-22T07:55:00.664Z,4.63
2022-09-22T08:02:00.347Z,5.72
2022-09-22T08:04:26.789Z,5.13
2022-09-22T08:06:56.042Z,7.53
2022-09-22T08:09:34.709Z,5.82
2022-09-22T08:12:29.783Z,4.38
2022-09-22T08:18:37.349Z,3.60
2022-09-22T08:22:05.026Z,3.95
2022-09-22T08:25:15.793Z,3.40
2022-09-22T08:28:44.943Z,3.10
2022-09-22T08:31:30.452Z,2.80
2022-09-22T08:38:10.741Z,3.00
2022-09-22T08:41:48.500Z,2.92
2022-09-22T08:44:44.744Z,3.00
2022-09-22T08:51:36.186Z,2.60
2022-09-22T08:54:21.014Z,2.85
2022-09-22T08:57:12.580Z,2.90
2022-09-22T09:00:29.397Z,3.30
2022-09-22T09:03:30.406Z,3.08
2022-09-22T09:06:08.836Z,2.95
2022-09-22T09:09:14.996Z,2.42
2022-09-22T09:12:01.396Z,2.75
2022-09-22T09:14:47.183Z,2.40
2022-09-22T09:17:59.116Z,2.65
2022-09-22T09:21:41.683Z,2.80
2022-09-22T09:31:46.324Z,2.78
2022-09-22T10:01:50.998Z,2.40
2022-09-22T10:08:50.416Z,2.58
2022-09-22T10:12:02.683Z,2.60
2022-09-22T10:14:32.789Z,2.33
2022-09-22T10:17:00.248Z,2.17
2022-09-22T10:19:51.169Z,2.70
2022-09-22T10:22:39.721Z,2.95
2022-09-22T10:25:29.372Z,2.60
2022-09-22T10:28:29.631Z,3.08
2022-09-22T10:31:03.983Z,2.92
2022-09-22T10:34:26.778Z,3.33
2022-09-22T10:37:20.243Z,3.10
2022-09-22T10:40:20.816Z,3.05
2022-09-22T10:43:48.967Z,2.42
2022-09-22T10:50:31.806Z,3.03
2022-09-22T10:53:59.290Z,3.33
2022-09-22T10:56:43.845Z,2.45
2022-09-22T10:59:13.721Z,2.95
2022-09-22T11:02:38.213Z,2.63
2022-09-22T11:05:46.334Z,3.15
2022-09-22T11:08:34.581Z,3.90
2022-09-22T11:11:24.633Z,2.88
2022-09-22T11:14:07.265Z,3.15
2022-09-22T11:16:53.781Z,4.20
2022-09-22T11:19:42.131Z,3.28
2022-09-22T11:22:24.318Z,3.22
2022-09-22T11:25:25.088Z,3.25
2022-09-22T11:28:17.805Z,2.70
2022-09-22T11:30:50.239Z,2.83
2022-09-22T11:33:31.315Z,3.10
2022-09-22T11:36:27.793Z,2.38
2022-09-22T11:39:12.762Z,2.95
2022-09-22T11:42:07.632Z,2.83
2022-09-22T11:44:42.431Z,2.88
2022-09-22T11:47:27.924Z,3.20
2022-09-22T11:50:27.596Z,2.70
2022-09-22T11:53:06.456Z,2.90
2022-09-22T11:56:14.473Z,3.22
2022-09-22T11:58:49.180Z,2.45
2022-09-22T12:01:26.739Z,2.50
2022-09-22T12:04:03.959Z,2.72
2022-09-22T12:06:43.289Z,2.42
2022-09-22T12:09:52.615Z,2.47
2022-09-22T12:12:24.498Z,3.40
2022-09-22T12:15:17.214Z,2.55
2022-09-22T12:18:21.466Z,2.30
2022-09-22T12:21:09.992Z,2.50
2022-09-22T12:23:51.310Z,2.28
2022-09-22T12:26:44.717Z,2.40
2022-09-22T12:29:19.064Z,2.50
2022-09-22T12:32:02.160Z,2.90
2022-09-22T12:34:39.993Z,3.10
2022-09-22T12:37:36.575Z,2.65
2022-09-22T12:40:21.785Z,2.42
2022-09-22T12:47:00.520Z,2.80
2022-09-22T12:49:28.467Z,2.40
2022-09-22T12:51:58.288Z,2.75
2022-09-22T12:54:29.564Z,2.97
2022-09-22T12:57:03.344Z,2.78
2022-09-22T12:59:42.602Z,2.38
2022-09-22T13:02:16.094Z,1.95
2022-09-22T13:05:26.950Z,2.25
2022-09-22T13:07:53.528Z,2.50
2022-09-22T13:10:38.374Z,2.20
2022-09-22T13:13:33.909Z,2.53
2022-09-22T13:16:26.488Z,2.40
2022-09-22T13:18:54.372Z,2.72
2022-09-22T13:21:32.661Z,2.78
2022-09-22T13:24:05.283Z,2.58
2022-09-22T13:26:35.443Z,2.67
2022-09-22T13:29:22.957Z,2.78
2022-09-22T13:31:55.752Z,2.20
2022-09-22T13:34:35.740Z,2.42
2022-09-22T13:37:16.529Z,2.35
2022-09-22T13:39:52.416Z,2.38
2022-09-22T13:42:32.782Z,2.67
2022-09-22T13:45:10.181Z,3.10
2022-09-22T13:47:41.638Z,3.60
2022-09-22T13:50:24.083Z,2.97
2022-09-22T13:53:01.600Z,3.03
2022-09-22T13:55:37.873Z,2.80
2022-09-22T13:58:10.471Z,2.05
2022-09-22T14:01:11.461Z,2.40
2022-09-22T14:03:54.588Z,2.83
2022-09-22T14:06:38.416Z,2.22
2022-09-22T14:09:17.813Z,2.58
2022-09-22T14:11:45.368Z,2.15
2022-09-22T14:14:30.651Z,2.25
2022-09-22T14:17:15.096Z,2.10
2022-09-22T14:20:04.187Z,2.28
2022-09-22T14:22:41.120Z,2.38
2022-09-22T14:25:27.412Z,2.35
2022-09-22T14:28:02.099Z,2.85
2022-09-22T14:30:42.421Z,2.50
2022-09-22T14:33:30.182Z,2.33
2022-09-22T14:36:08.657Z,2.20
2022-09-22T14:38:43.186Z,2.15
2022-09-22T14:41:32.502Z,2.42
2022-09-22T14:44:26.207Z,2.63
2022-09-22T14:47:00.019Z,2.20
2022-09-22T14:49:42.480Z,2.75
2022-09-22T14:52:32.783Z,2.78
2022-09-22T14:55:07.970Z,2.17
2022-09-22T14:57:38.042Z,2.90
2022-09-22T15:00:25.094Z,3.50
2022-09-22T15:02:58.298Z,3.53
2022-09-22T15:05:31.092Z,3.53
2022-09-22T15:08:00.052Z,3.42
2022-09-22T15:10:30.812Z,3.67
2022-09-22T15:13:33.524Z,3.38
2022-09-22T15:16:03.955Z,3.05
2022-09-22T15:18:35.083Z,3.15
2022-09-22T15:21:16.178Z,3.20
2022-09-22T15:23:50.360Z,2.90
2022-09-22T15:26:34.539Z,3.28
2022-09-22T15:29:03.915Z,3.85
2022-09-22T15:31:33.599Z,3.65
2022-09-22T15:34:01.636Z,3.40
2022-09-22T15:36:32.972Z,3.40
2022-09-22T15:39:24.043Z,4.43
2022-09-22T15:41:54.979Z,4.10
2022-09-22T15:44:25.415Z,4.15
2022-09-22T15:46:54.898Z,5.28
2022-09-22T15:49:27.174Z,4.45
2022-09-22T15:51:58.337Z,3.97
2022-09-22T15:54:26.984Z,3.85
2022-09-22T15:56:59.426Z,3.42
2022-09-22T15:59:32.643Z,5.55
2022-09-22T16:02:01.400Z,3.08
2022-09-22T16:04:34.419Z,3.88
2022-09-22T16:07:08.461Z,3.70
2022-09-22T16:09:36.395Z,3.53
2022-09-22T16:12:23.312Z,3.20
2022-09-22T16:14:54.723Z,3.55
2022-09-22T16:17:24.297Z,4.07
2022-09-22T16:20:02.347Z,4.32
2022-09-22T16:22:31.941Z,5.07
2022-09-22T16:24:58.995Z,4.72
2022-09-22T16:27:32.158Z,5.85
2022-09-22T16:30:04.796Z,5.90
2022-09-22T16:32:38.864Z,6.45
2022-09-22T16:35:08.493Z,6.10
2022-09-22T16:37:40.167Z,5.85
2022-09-22T16:40:10.768Z,5.20
2022-09-22T16:42:39.904Z,5.30
2022-09-22T16:45:10.587Z,5.03
2022-09-22T16:47:40.958Z,5.28
2022-09-22T16:50:17.384Z,5.10
2022-09-22T16:52:47.346Z,5.43
2022-09-22T16:55:15.927Z,5.75
2022-09-22T16:57:59.713Z,5.60
2022-09-22T17:00:27.516Z,6.00
2022-09-22T17:03:28.829Z,4.82
2022-09-22T17:06:08.341Z,5.20
2022-09-22T17:08:42.964Z,5.63
2022-09-22T17:11:14.525Z,5.23
2022-09-22T17:13:51.112Z,5.50
2022-09-22T17:16:25.642Z,5.55
2022-09-22T17:18:54.425Z,6.10
2022-09-22T17:21:22.088Z,5.13
2022-09-22T17:23:52.964Z,5.82
2022-09-22T17:26:21.406Z,5.90
2022-09-22T17:28:54.090Z,5.53
2022-09-22T17:31:28.413Z,6.15
2022-09-22T17:34:17.308Z,6.10
2022-09-22T17:36:55.525Z,5.63
2022-09-22T17:39:36.878Z,4.68
2022-09-22T17:42:04.222Z,4.90
2022-09-22T17:44:40.174Z,4.90
2022-09-22T17:47:30.458Z,5.32
2022-09-22T17:50:51.485Z,5.53
2022-09-22T17:53:47.303Z,5.10
2022-09-22T17:56:14.446Z,5.18
2022-09-22T18:02:07.550Z,6.25
2022-09-22T18:04:44.720Z,6.03
2022-09-22T18:07:23.575Z,6.38
2022-09-22T18:10:21.905Z,6.15
2022-09-22T18:13:12.336Z,7.45
2022-09-22T18:15:48.556Z,6.53
2022-09-22T18:18:26.841Z,7.43
2022-09-22T18:22:04.918Z,6.88
2022-09-22T18:24:37.325Z,7.30
2022-09-22T18:27:10.829Z,7.47
2022-09-22T18:29:53.630Z,6.32
2022-09-22T18:32:21.675Z,6.70
2022-09-22T18:34:53.377Z,6.65
2022-09-22T18:37:22.298Z,6.88
2022-09-22T18:39:50.788Z,6.97
2022-09-22T18:42:19.278Z,6.05
2022-09-22T18:44:48.384Z,5.45
2022-09-22T18:50:07.536Z,6.07
2022-09-22T18:52:39.427Z,5.70
2022-09-22T18:55:10.786Z,4.95
2022-09-22T18:57:38.175Z,5.00
2022-09-22T19:00:14.342Z,4.88
2022-09-22T19:02:46.406Z,5.15
2022-09-22T19:05:13.476Z,5.03
2022-09-22T19:07:43.576Z,4.75
2022-09-22T19:10:13.929Z,5.95
2022-09-22T19:12:41.170Z,5.18
2022-09-22T19:15:13.860Z,5.75
2022-09-22T19:17:45.564Z,5.22
2022-09-22T19:20:25.126Z,5.78
2022-09-22T19:23:01.421Z,5.53
2022-09-22T19:25:30.130Z,5.90
2022-09-22T19:27:57.268Z,6.10
2022-09-22T19:30:27.536Z,6.32
2022-09-22T19:33:08.749Z,6.22
2022-09-22T19:35:39.279Z,7.00
2022-09-22T19:38:06.790Z,7.18
2022-09-22T19:40:34.067Z,7.03
2022-09-22T19:43:03.051Z,7.45
2022-09-22T19:45:31.925Z,7.45
2022-09-22T19:47:59.489Z,7.05
2022-09-22T19:50:26.731Z,6.88
2022-09-22T19:52:53.871Z,6.80
2022-09-22T19:55:22.289Z,6.35
2022-09-22T19:57:50.131Z,7.57
2022-09-22T20:00:26.158Z,6.20
2022-09-22T20:03:02.960Z,5.65
2022-09-22T20:05:37.151Z,5.40
2022-09-22T20:08:08.280Z,4.85
2022-09-22T20:10:40.393Z,4.10
2022-09-22T20:13:43.877Z,3.83
2022-09-22T20:16:14.861Z,3.90
2022-09-22T20:18:42.215Z,3.25
2022-09-22T20:21:16.021Z,3.78
2022-09-22T20:23:43.343Z,3.90
2022-09-22T20:26:10.356Z,3.05
2022-09-22T20:28:39.837Z,3.20
2022-09-22T20:31:12.685Z,3.83
2022-09-22T20:33:40.671Z,3.42
2022-09-22T20:36:10.976Z,3.55
2022-09-22T20:38:40.486Z,3.42
2022-09-22T20:41:19.130Z,3.80
2022-09-22T20:43:46.766Z,2.95
2022-09-22T20:46:14.041Z,3.70
2022-09-22T20:48:41.399Z,3.15
2022-09-22T20:51:09.381Z,3.22
2022-09-22T20:53:37.010Z,2.88
2022-09-22T20:56:12.198Z,3.30
2022-09-22T20:58:45.708Z,3.25
2022-09-22T21:01:24.945Z,3.10
2022-09-22T21:03:52.328Z,3.75
2022-09-22T21:06:22.365Z,3.17
2022-09-22T21:09:09.894Z,3.13
2022-09-22T21:11:45.608Z,3.30
2022-09-22T21:14:46.152Z,4.07
2022-09-22T21:17:20.366Z,3.53
2022-09-22T21:19:47.575Z,3.55
2022-09-22T21:22:15.411Z,4.00
2022-09-22T21:24:45.907Z,3.58
2022-09-22T21:27:17.278Z,3.53
2022-09-22T21:29:46.328Z,3.53
2022-09-22T21:32:13.645Z,3.28
2022-09-22T21:34:43.949Z,3.42
2022-09-22T21:37:19.473Z,3.70
2022-09-22T21:39:49.711Z,3.63
2022-09-22T21:42:29.985Z,3.85
2022-09-22T21:44:57.333Z,3.50
2022-09-22T21:47:24.724Z,3.60
2022-09-22T21:50:03.478Z,3.72
2022-09-22T21:52:31.492Z,3.72
2022-09-22T21:55:02.182Z,3.95
2022-09-22T21:57:29.493Z,3.40
2022-09-22T21:59:56.887Z,3.30
2022-09-22T22:02:24.399Z,3.75
2022-09-22T22:04:51.560Z,3.63
2022-09-22T22:07:19.705Z,3.33
2022-09-22T22:09:47.594Z,3.72
2022-09-22T22:12:14.938Z,3.85
2022-09-22T22:14:53.066Z,3.60
2022-09-22T22:17:20.156Z,3.55
2022-09-22T22:19:47.603Z,3.70
2022-09-22T22:22:17.137Z,3.88
2022-09-22T22:24:44.242Z,4.32
2022-09-22T22:27:17.058Z,4.10
2022-09-22T22:29:44.125Z,4.57
2022-09-22T22:32:17.140Z,4.20
2022-09-22T22:34:44.475Z,4.30
2022-09-22T22:37:11.608Z,4.40
2022-09-22T22:39:41.364Z,4.35
2022-09-22T22:42:08.544Z,4.10
2022-09-22T22:44:38.414Z,4.72
2022-09-22T22:47:05.720Z,5.03
2022-09-22T22:49:33.024Z,4.78
2022-09-22T22:52:50.257Z,5.00
2022-09-22T22:55:17.297Z,5.35
2022-09-22T22:57:49.484Z,4.97
2022-09-22T23:00:18.374Z,5.07
2022-09-22T23:02:45.694Z,5.45
2022-09-22T23:05:12.755Z,5.20
2022-09-22T23:07:39.797Z,5.38
2022-09-22T23:10:07.494Z,5.20
2022-09-22T23:12:35.712Z,5.20
2022-09-22T23:15:03.864Z,5.30
2022-09-22T23:17:32.107Z,4.78
2022-09-22T23:19:59.281Z,4.90
2022-09-22T23:22:28.027Z,5.30
2022-09-22T23:24:55.084Z,5.65
2022-09-22T23:27:22.547Z,5.20
2022-09-22T23:29:49.489Z,5.85
2022-09-22T23:32:17.238Z,5.25
2022-09-22T23:34:44.364Z,5.85
2022-09-22T23:37:11.284Z,5.55
2022-09-22T23:39:38.268Z,6.20
2022-09-22T23:42:16.076Z,5.70
2022-09-22T23:44:43.284Z,5.20
2022-09-22T23:47:16.133Z,5.45
2022-09-22T23:49:44.053Z,5.30
2022-09-22T23:52:11.712Z,5.68
2022-09-22T23:54:38.698Z,5.70
2022-09-22T23:57:06.077Z,5.10
2022-09-22T23:59:33.299Z,5.45
